Colorado Springs, CO (80916)

3:23 AM MDT on July 30, 2016 (GMT -0600)
Soaring Eagles | | Change Station

Elev 5991 ft 38.79 °N, 104.74 °W | Updated 24 seconds ago

Light Thunderstorms and Rain
Light Thunderstorm Rain
61.2 °F
Feels Like 61.2 °F
N
0.0
Wind Variable Wind from North
Gusts 0.0 mph

Today
High -- | Low -- °F
--% Chance of Precip.
Yesterday
High -- | Low -- °F
Precip. -- in
Pressure 29.95 in
Visibility 7.0 miles
Clouds Mostly Cloudy 1200 ft
Mostly Cloudy 2800 ft
Overcast 11000 ft
Dew Point 56 °F
Humidity 84%
Rainfall 0.02 in
Snow Depth Not available.
5:58 AM 8:11 PM
Waning Crescent, 14% visible
METAR KCOS 300854Z COR 15013KT 7SM -TSRA BKN012 BKN028CB OVC110 18/15 A3020 RMK AO2 PRESFR SLP141 RAB54 TSB26 FRQ LTGICCG OHD TS OHD MOV SE P0000 60000 T01780150 58019
Pressure 29.95 in
Visibility 7.0 miles
Clouds Mostly Cloudy 1200 ft
Mostly Cloudy 2800 ft
Overcast 11000 ft
Dew Point 56 °F
Humidity 84%
Rainfall 0.02 in
Snow Depth Not available.
5:58 AM 8:11 PM
Waning Crescent, 14% visible
METAR KCOS 300854Z COR 15013KT 7SM -TSRA BKN012 BKN028CB OVC110 18/15 A3020 RMK AO2 PRESFR SLP141 RAB54 TSB26 FRQ LTGICCG OHD TS OHD MOV SE P0000 60000 T01780150 58019

10-Day Weather Forecast

Almanac

Astronomy

Jul. 30, 2016 Rise Set
Actual Time
Civil Twilight
Nautical Twilight
Astronomical Twilight
Moon
Length of Visible Light
Length of Day
Tomorrow will be .
, % of the Moon is Illuminated

Today's Extremes

State Highs State Lows

Community

WunderPhotos

Upload Photos

1,928,528 photos uploaded!

WunderBlog® & News

Nearby

Air Quality

  Air Quality AQ Index Pollutant
Not available.

Snow Depth

Station Depth Elevation

Earthquake Activity

City Distance Mag. Time & Date
Minimum magnitude displayed is 2.5.

Coastal Water Temperatures

Place Temperature

Stations

Nearby Weather Stations

Station Location Temp. Windchill Dew Point Humidity Wind Precip. Elev Updated Type
                   

Watches & Warnings

There are currently no watches in effect.